Time;durP1;ratioP1;P1;durP2;ratioP2;P2;SDS_P1;SDS_P2;PMS_P1;PMS_P2;Temp;Humidity;BMP_temperature;BMP_pressure;BME280_temperature;BME280_humidity;BME280_pressure;Samples;Min_cycle;Max_cycle;Signal;HPM_P1;HPM_P2
2021/11/30 00:02:10;;;;;;;9.38;8.45;;;3.20;99.90;;;3.11;78.14;100204.59;5059453;28;20185;-71
2021/11/30 00:04:39;;;;;;;11.50;9.20;;;3.10;99.90;;;2.97;78.32;100200.81;5064550;28;20217;-71
2021/11/30 00:07:08;;;;;;;9.70;8.80;;;3.10;99.90;;;3.04;78.40;100209.00;5065657;28;20197;-69
2021/11/30 00:12:26;;;;;;;10.80;8.82;;;3.10;99.90;;;3.13;78.00;100204.44;5059682;28;20180;-71
2021/11/30 00:14:57;;;;;;;11.02;9.00;;;3.10;99.90;;;3.18;78.21;100191.41;5056709;28;20212;-71
2021/11/30 00:17:27;;;;;;;12.32;9.48;;;3.10;99.90;;;3.12;78.25;100190.25;5056239;28;20205;-68
2021/11/30 00:19:58;;;;;;;10.50;8.68;;;3.10;99.90;;;3.18;78.15;100189.56;5056139;28;20673;-69
2021/11/30 00:22:29;;;;;;;10.75;9.30;;;3.20;99.90;;;3.10;78.12;100181.56;5041006;28;20200;-69
2021/11/30 00:25:03;;;;;;;13.77;10.43;;;3.10;1.00;;;3.09;77.88;100174.56;5057022;28;20247;-69
2021/11/30 00:27:34;;;;;;;11.02;8.98;;;3.10;1.00;;;2.96;77.87;100180.41;5058590;28;20193;-70
2021/11/30 00:30:06;;;;;;;14.70;10.60;;;3.00;1.00;;;3.01;78.09;100177.22;5056374;28;20177;-69
2021/11/30 00:32:37;;;;;;;16.15;10.27;;;3.00;1.00;;;3.01;77.75;100172.72;5055973;28;20197;-68
2021/11/30 00:35:08;;;;;;;12.25;9.30;;;3.00;1.00;;;3.05;77.55;100179.41;5057722;28;20231;-69
2021/11/30 00:37:38;;;;;;;14.75;10.50;;;3.00;1.00;;;2.86;77.69;100179.78;5057892;28;20170;-70
2021/11/30 00:40:09;;;;;;;17.73;12.27;;;3.00;99.90;;;2.96;77.71;100180.41;5056517;28;20199;-69
2021/11/30 00:42:39;;;;;;;14.10;10.93;;;3.00;99.90;;;3.06;77.93;100178.41;5058711;28;20705;-71
2021/11/30 00:45:13;;;;;;;16.08;11.65;;;3.00;1.00;;;3.00;78.08;100176.41;5057480;28;20196;-71
2021/11/30 00:47:49;;;;;;;18.05;11.77;;;3.00;99.90;;;3.00;77.81;100176.41;5057259;28;20223;-69
2021/11/30 00:50:21;;;;;;;14.63;11.27;;;3.00;99.90;;;2.97;77.95;100168.72;5058366;28;20192;-70
2021/11/30 00:52:52;;;;;;;13.68;11.20;;;3.00;99.90;;;3.13;77.34;100165.19;5055998;28;20259;-69
2021/11/30 00:55:22;;;;;;;17.42;12.25;;;3.10;99.90;;;3.05;77.30;100163.34;5057052;28;20165;-69
2021/11/30 00:57:52;;;;;;;14.27;11.15;;;3.10;99.90;;;3.04;77.37;100161.72;5055845;28;20224;-69
2021/11/30 01:00:21;;;;;;;13.98;10.20;;;3.10;1.00;;;3.04;77.17;100153.69;5057264;28;20472;-69
2021/11/30 01:02:52;;;;;;;15.13;11.25;;;3.10;1.00;;;2.99;77.38;100152.53;5054342;28;20189;-70
2021/11/30 01:05:22;;;;;;;17.35;11.68;;;3.00;1.00;;;2.95;77.87;100141.31;5055885;28;20219;-72
2021/11/30 01:07:55;;;;;;;18.30;13.60;;;3.00;1.00;;;2.98;77.27;100145.50;5055711;28;20284;-71
2021/11/30 01:10:28;;;;;;;18.88;13.32;;;3.00;1.00;;;2.92;77.31;100136.34;5041007;28;20193;-70
2021/11/30 01:12:59;;;;;;;17.50;13.05;;;2.90;99.90;;;2.96;77.46;100136.81;5057316;28;20224;-70
2021/11/30 01:15:28;;;;;;;20.08;14.43;;;3.00;1.00;;;2.99;77.14;100137.34;5059279;28;20259;-69
2021/11/30 01:17:57;;;;;;;16.98;13.73;;;3.00;1.00;;;3.09;76.89;100141.66;5058022;28;20214;-70
2021/11/30 01:20:26;;;;;;;16.80;12.00;;;3.10;99.90;;;2.89;76.88;100142.03;5055634;28;20219;-70
2021/11/30 01:22:56;;;;;;;20.15;14.13;;;3.00;1.00;;;2.90;77.13;100135.69;5056404;28;20179;-69
2021/11/30 01:25:26;;;;;;;16.55;13.73;;;2.90;1.00;;;2.99;76.60;100132.00;5055730;28;20203;-69
2021/11/30 01:27:55;;;;;;;20.70;13.95;;;3.00;1.00;;;3.02;76.90;100136.16;5054808;28;20212;-69
2021/11/30 01:30:26;;;;;;;18.30;12.88;;;3.00;1.00;;;3.15;76.15;100131.06;5054035;28;20250;-72
2021/11/30 01:32:54;;;;;;;21.15;14.68;;;3.10;1.00;;;3.08;76.79;100119.44;5054527;28;20195;-69
2021/11/30 01:35:23;;;;;;;19.45;14.02;;;3.10;1.00;;;3.10;76.88;100116.59;5054578;28;20268;-70
2021/11/30 01:37:53;;;;;;;17.27;12.80;;;3.10;1.00;;;3.06;76.41;100108.06;5054793;28;20189;-71
2021/11/30 01:40:25;;;;;;;21.23;15.20;;;3.10;99.90;;;3.14;76.12;100115.22;5054904;28;20216;-69
2021/11/30 01:42:58;;;;;;;19.75;14.57;;;3.10;99.90;;;2.95;76.16;100103.91;5054786;28;20299;-70
2021/11/30 01:45:43;;;;;;;15.88;12.32;;;3.00;1.00;;;2.99;76.16;100113.28;5056294;28;20320;-71
2021/11/30 01:51:06;;;;;;;19.73;13.98;;;2.90;99.90;;;2.84;77.15;100106.97;5045095;28;20204;-69
2021/11/30 01:53:35;;;;;;;22.50;14.75;;;2.90;99.90;;;2.82;76.93;100103.63;5055024;28;20267;-70
2021/11/30 01:56:05;;;;;;;20.15;14.57;;;2.90;99.90;;;2.93;76.86;100111.28;5055655;28;20176;-68
2021/11/30 01:58:34;;;;;;;18.65;14.23;;;2.90;1.00;;;2.86;76.96;100107.63;5055819;28;20252;-69
2021/11/30 02:01:06;;;;;;;21.25;14.63;;;2.90;99.90;;;2.83;76.77;100105.31;5055747;28;20188;-69
2021/11/30 02:03:36;;;;;;;21.85;14.93;;;2.90;99.90;;;2.89;76.31;100104.63;5055099;28;20219;-70
2021/11/30 02:06:06;;;;;;;16.77;13.45;;;2.90;89.30;;;2.79;76.67;100097.81;5056254;28;20197;-69
2021/11/30 02:08:35;;;;;;;18.50;13.55;;;2.90;34.60;;;2.83;76.49;100093.78;5056213;28;20252;-73
2021/11/30 02:11:05;;;;;;;20.85;14.30;;;2.80;99.90;;;2.85;75.98;100086.44;5056252;28;20230;-69
2021/11/30 02:13:34;;;;;;;16.77;14.68;;;2.90;1.00;;;2.84;75.82;100077.59;5055211;28;20738;-70
2021/11/30 02:16:07;;;;;;;22.85;15.75;;;2.90;1.00;;;2.79;75.88;100074.59;5055872;28;20256;-69
2021/11/30 02:18:41;;;;;;;19.45;15.77;;;2.80;1.00;;;2.78;75.89;100077.44;5055081;28;20672;-68
2021/11/30 02:21:12;;;;;;;19.67;15.95;;;2.80;99.90;;;2.72;75.67;100076.28;5054789;28;20212;-68
2021/11/30 02:23:48;;;;;;;19.73;14.77;;;2.80;99.90;;;2.73;75.48;100067.25;5055812;28;20217;-69
2021/11/30 02:26:18;;;;;;;21.33;15.77;;;2.80;99.90;;;2.79;75.31;100066.59;5054452;28;20693;-69
2021/11/30 02:28:51;;;;;;;24.17;16.38;;;2.80;99.90;;;2.76;75.65;100064.22;5055430;28;20169;-68
2021/11/30 02:31:22;;;;;;;18.85;14.45;;;2.80;99.90;;;2.78;75.73;100054.22;5053813;28;20279;-68
2021/11/30 02:33:51;;;;;;;21.65;14.95;;;2.80;99.90;;;2.83;75.65;100051.88;5055700;28;20224;-71
2021/11/30 02:36:28;;;;;;;18.98;14.48;;;2.80;99.90;;;2.74;75.44;100046.72;5055206;28;20568;-69
2021/11/30 02:39:00;;;;;;;26.20;16.65;;;2.80;99.90;;;2.82;75.39;100052.88;5054325;28;20189;-70
2021/11/30 02:41:29;;;;;;;24.70;16.00;;;2.80;99.90;;;2.79;75.69;100042.53;5054550;28;20208;-70
2021/11/30 02:43:58;;;;;;;27.65;17.02;;;2.80;1.00;;;2.85;75.85;100030.31;5054084;28;20284;-71
2021/11/30 02:46:36;;;;;;;21.73;16.00;;;2.80;1.00;;;2.77;76.10;100031.16;5056312;28;20203;-70
2021/11/30 02:49:09;;;;;;;21.98;16.50;;;2.80;1.00;;;2.89;75.73;100028.97;5055591;28;20549;-72
2021/11/30 02:51:44;;;;;;;23.45;17.80;;;2.80;1.00;;;2.87;75.52;100006.91;5056689;28;20181;-70
2021/11/30 02:54:17;;;;;;;20.08;16.75;;;2.90;1.00;;;2.90;75.32;100011.94;5054187;28;20216;-68
2021/11/30 02:56:49;;;;;;;25.30;17.83;;;2.90;1.00;;;2.86;75.66;99992.72;5054744;28;20173;-71
2021/11/30 02:59:18;;;;;;;23.33;17.35;;;2.90;1.00;;;2.91;75.24;99977.00;5054114;28;20201;-70
2021/11/30 03:01:55;;;;;;;21.63;16.00;;;2.90;1.00;;;2.88;75.56;99972.00;5054569;28;20228;-71
2021/11/30 03:04:26;;;;;;;20.83;15.88;;;2.90;38.70;;;2.79;75.51;99966.88;5054980;28;20665;-72
2021/11/30 03:06:58;;;;;;;23.05;17.10;;;2.90;45.90;;;2.84;75.14;99962.69;5054843;28;20206;-70
2021/11/30 03:09:28;;;;;;;23.38;17.65;;;2.90;99.90;;;2.95;74.67;99966.81;5054042;28;20189;-71
2021/11/30 03:11:57;;;;;;;25.75;17.70;;;2.90;99.90;;;2.82;74.93;99962.03;5054306;28;20185;-72
2021/11/30 03:14:28;;;;;;;24.38;17.50;;;2.90;99.90;;;2.89;75.13;99952.31;5054149;28;20738;-69
2021/11/30 03:16:59;;;;;;;24.98;18.02;;;2.90;99.90;;;2.83;75.22;99945.00;5055170;28;20169;-70
2021/11/30 03:19:30;;;;;;;22.35;18.30;;;2.90;99.90;;;2.96;75.00;99934.53;5053787;28;20184;-69
2021/11/30 03:22:02;;;;;;;26.73;20.08;;;2.90;99.90;;;3.00;74.83;99930.50;5053199;28;20193;-70
2021/11/30 03:24:32;;;;;;;25.67;20.50;;;3.00;99.90;;;2.89;74.95;99922.91;5053629;28;20631;-70
2021/11/30 03:27:01;;;;;;;23.58;18.33;;;2.90;99.90;;;2.89;75.18;99922.91;5058237;28;20184;-70
2021/11/30 03:29:30;;;;;;;26.23;18.88;;;2.90;99.90;;;3.00;75.15;99909.13;5058506;28;20183;-69
2021/11/30 03:32:06;;;;;;;25.05;18.08;;;3.00;99.90;;;2.97;75.16;99920.19;5058629;28;20608;-69
2021/11/30 03:34:35;;;;;;;22.15;16.35;;;3.00;99.90;;;3.08;74.53;99900.25;5058510;28;20207;-73
2021/11/30 03:37:07;;;;;;;24.30;17.92;;;3.10;99.90;;;2.91;74.63;99901.34;5058680;28;20602;-69
2021/11/30 03:39:37;;;;;;;26.27;19.10;;;3.00;99.90;;;2.99;74.79;99912.84;5060690;28;20246;-69
2021/11/30 03:42:07;;;;;;;24.55;17.90;;;3.00;99.90;;;3.05;74.85;99898.72;5060715;28;20196;-69
2021/11/30 03:44:36;;;;;;;22.45;18.13;;;3.00;99.90;;;3.13;74.85;99889.00;5059579;28;20262;-70
2021/11/30 03:47:05;;;;;;;24.25;17.58;;;3.10;99.90;;;3.10;74.55;99882.16;5059526;28;20251;-68
2021/11/30 03:49:33;;;;;;;25.45;17.95;;;3.10;99.90;;;3.05;74.46;99864.00;5059620;28;20236;-70
2021/11/30 03:52:08;;;;;;;27.08;18.02;;;3.10;99.90;;;2.97;74.73;99856.03;5062404;28;20199;-70
2021/11/30 03:54:37;;;;;;;25.40;18.25;;;3.00;99.90;;;2.97;74.58;99840.00;5062030;28;20293;-71
2021/11/30 03:57:07;;;;;;;24.95;17.88;;;3.00;99.90;;;2.94;74.88;99845.72;5061424;28;20205;-69
2021/11/30 03:59:35;;;;;;;25.15;18.50;;;3.00;99.90;;;2.98;74.13;99839.00;5060845;28;20181;-70
2021/11/30 04:02:04;;;;;;;23.17;17.48;;;3.00;99.90;;;2.94;74.25;99837.72;5060969;28;20268;-70
2021/11/30 04:04:35;;;;;;;23.85;19.30;;;3.00;99.90;;;2.84;74.78;99812.22;5059672;28;20315;-72
2021/11/30 04:07:08;;;;;;;23.10;16.00;;;2.90;99.90;;;2.87;74.04;99807.34;5060146;28;20212;-70
2021/11/30 04:09:38;;;;;;;21.95;17.60;;;2.90;99.90;;;2.77;74.33;99801.41;5060821;28;20200;-68
2021/11/30 04:12:10;;;;;;;24.70;17.67;;;2.90;99.90;;;2.87;73.97;99796.66;5061191;28;20202;-69
2021/11/30 04:14:41;;;;;;;20.60;16.52;;;2.90;99.90;;;2.88;73.73;99787.66;5061869;28;20208;-69
2021/11/30 04:17:14;;;;;;;27.63;17.98;;;2.90;99.90;;;2.95;74.16;99783.22;5064155;28;20239;-72
2021/11/30 04:19:43;;;;;;;20.65;16.95;;;2.90;99.90;;;2.97;73.81;99785.72;5069994;28;20184;-70
2021/11/30 04:22:14;;;;;;;23.52;16.83;;;3.00;99.90;;;3.00;74.23;99780.03;5067753;28;20173;-73
2021/11/30 04:24:43;;;;;;;23.05;17.92;;;3.00;99.90;;;3.03;73.60;99772.50;5064642;28;20226;-70
2021/11/30 04:27:12;;;;;;;19.08;15.73;;;3.00;99.90;;;3.02;73.80;99764.63;5062052;28;20207;-70
2021/11/30 04:29:42;;;;;;;20.05;14.80;;;3.00;99.90;;;2.98;73.64;99764.19;5062194;28;20188;-70
2021/11/30 04:32:11;;;;;;;22.35;17.70;;;3.00;99.90;;;2.79;74.61;99753.16;5062411;28;20196;-70
2021/11/30 04:34:41;;;;;;;23.63;17.17;;;2.90;99.90;;;2.82;74.69;99750.94;5062795;28;20212;-71
2021/11/30 04:37:10;;;;;;;21.85;15.77;;;2.90;99.90;;;2.83;75.14;99741.94;5062611;28;20196;-70
2021/11/30 04:39:40;;;;;;;21.13;16.60;;;2.90;99.90;;;2.76;75.56;99742.84;5066675;28;20197;-70
2021/11/30 04:42:10;;;;;;;22.65;16.55;;;2.80;99.90;;;2.78;75.38;99728.28;5067567;28;20288;-70
2021/11/30 04:44:50;;;;;;;22.02;15.25;;;2.80;99.90;;;2.74;75.95;99729.66;5065908;28;20315;-70
2021/11/30 04:47:20;;;;;;;23.83;17.40;;;2.80;99.90;;;2.59;76.95;99726.09;5065240;28;20200;-70
2021/11/30 04:49:55;;;;;;;24.17;16.10;;;2.70;99.90;;;2.50;77.16;99721.84;5061452;28;20271;-69
2021/11/30 04:52:24;;;;;;;24.33;17.20;;;2.60;99.90;;;2.53;77.45;99708.13;5065377;28;20196;-69
2021/11/30 04:54:54;;;;;;;23.38;14.95;;;2.60;99.90;;;2.40;77.91;99706.06;5065755;28;20227;-70
2021/11/30 04:57:24;;;;;;;23.55;16.13;;;2.50;99.90;;;2.36;78.31;99695.91;5067202;28;20241;-70
2021/11/30 04:59:53;;;;;;;25.17;18.17;;;2.40;99.90;;;2.35;78.48;99688.91;5065759;28;20188;-69
2021/11/30 05:02:22;;;;;;;23.38;15.38;;;2.40;99.90;;;2.17;78.80;99687.38;5066803;28;20267;-69
2021/11/30 05:04:52;;;;;;;26.05;15.45;;;2.30;99.90;;;2.15;79.49;99678.72;5057637;28;20216;-68
2021/11/30 05:07:23;;;;;;;25.15;16.02;;;2.20;99.90;;;2.32;79.00;99675.94;5054653;28;20270;-70
2021/11/30 05:09:55;;;;;;;21.05;16.55;;;2.30;99.90;;;2.26;79.24;99668.63;5056186;28;20276;-69
2021/11/30 05:12:26;;;;;;;17.85;13.52;;;2.30;99.90;;;2.14;79.62;99661.03;5201743;23;20591;-75
2021/11/30 05:14:55;;;;;;;23.63;16.13;;;2.20;99.90;;;2.22;79.22;99659.34;5056826;28;20212;-75
2021/11/30 05:17:26;;;;;;;22.27;15.70;;;2.30;99.90;;;2.09;79.90;99642.06;5056107;28;20561;-74
2021/11/30 05:19:56;;;;;;;26.63;15.63;;;2.20;99.90;;;2.07;80.10;99638.75;5055324;28;20746;-74
2021/11/30 05:22:28;;;;;;;24.25;15.85;;;2.20;99.90;;;2.21;79.70;99625.63;5055906;28;20207;-73
2021/11/30 05:25:19;;;;;;;23.02;15.93;;;2.20;99.90;;;2.37;79.58;99620.97;5054177;28;20181;-74
2021/11/30 05:27:50;;;;;;;20.90;14.77;;;2.30;99.90;;;2.44;79.30;99621.09;5056016;28;20676;-74
2021/11/30 05:30:21;;;;;;;20.30;14.38;;;2.40;99.90;;;2.29;79.41;99617.56;5056480;28;20180;-75
2021/11/30 05:32:51;;;;;;;26.52;16.50;;;2.30;99.90;;;2.28;79.95;99597.19;5057873;28;20192;-74
2021/11/30 05:35:21;;;;;;;22.17;15.98;;;2.30;99.90;;;2.31;79.78;99600.34;5056832;28;20169;-75
2021/11/30 05:37:57;;;;;;;24.25;14.93;;;2.30;99.90;;;2.43;79.28;99593.56;5057831;28;20632;-75
2021/11/30 05:40:29;;;;;;;26.20;15.57;;;2.40;99.90;;;2.45;78.92;99583.53;5058587;28;20193;-75
2021/11/30 05:43:00;;;;;;;21.20;14.80;;;2.40;99.90;;;2.38;78.83;99565.75;5057073;28;20175;-74
2021/11/30 05:45:31;;;;;;;21.30;12.40;;;2.40;99.90;;;2.43;79.49;99572.19;5057294;28;20169;-74
2021/11/30 05:48:04;;;;;;;16.80;12.77;;;2.40;99.90;;;2.42;78.69;99567.88;5056209;28;20193;-74
2021/11/30 05:50:35;;;;;;;18.67;13.60;;;2.40;99.90;;;2.42;78.82;99557.19;5060199;28;20219;-74
2021/11/30 05:53:07;;;;;;;19.95;12.80;;;2.40;99.90;;;2.53;78.71;99553.25;5060601;28;20209;-74
2021/11/30 05:55:49;;;;;;;17.50;14.70;;;2.50;99.90;;;2.48;79.00;99542.28;5069818;28;20177;-74
2021/11/30 05:58:20;;;;;;;21.10;13.07;;;2.50;99.90;;;2.36;79.28;99530.41;5070552;28;20196;-73
2021/11/30 06:01:22;;;;;;;19.55;12.40;;;2.40;99.90;;;2.43;78.68;99515.31;5074256;28;20206;-74
2021/11/30 06:03:58;;;;;;;20.17;13.93;;;2.40;99.90;;;2.37;78.97;99510.72;5074193;28;20235;-74
2021/11/30 06:06:32;;;;;;;16.90;12.23;;;2.40;99.90;;;2.39;79.28;99503.34;5073559;28;20220;-74
2021/11/30 06:09:06;;;;;;;18.38;13.80;;;2.40;99.90;;;2.39;78.58;99492.66;5074302;28;20199;-73
2021/11/30 06:11:38;;;;;;;17.00;12.13;;;2.40;99.90;;;2.26;78.80;99479.13;5075453;28;20177;-74
2021/11/30 06:14:08;;;;;;;17.20;11.63;;;2.40;99.90;;;2.21;79.51;99469.00;5071981;28;20276;-73
2021/11/30 06:16:41;;;;;;;20.02;12.60;;;2.30;99.90;;;2.21;79.67;99462.84;5072937;28;20196;-74
2021/11/30 06:19:13;;;;;;;18.70;12.70;;;2.20;99.90;;;2.33;79.28;99450.69;5069183;28;20197;-74
2021/11/30 06:21:44;;;;;;;17.42;13.38;;;2.30;99.90;;;2.16;79.81;99445.53;5072245;28;20184;-74
2021/11/30 06:24:14;;;;;;;19.30;13.45;;;2.20;99.90;;;2.32;79.42;99436.53;5075656;28;20232;-74
2021/11/30 06:26:44;;;;;;;22.35;11.93;;;2.30;99.90;;;2.33;79.49;99430.16;5074888;28;20219;-74
2021/11/30 06:29:13;;;;;;;20.60;11.48;;;2.40;99.90;;;2.26;79.70;99433.75;5076516;28;20195;-74
2021/11/30 06:31:43;;;;;;;17.33;11.43;;;2.30;99.90;;;2.16;79.36;99432.19;5075799;28;20179;-73
2021/11/30 06:34:12;;;;;;;18.88;12.63;;;2.20;99.90;;;1.97;80.22;99426.56;5062459;28;20220;-75
2021/11/30 06:36:41;;;;;;;17.30;11.80;;;2.10;99.90;;;2.29;79.96;99422.69;5052499;28;20170;-75
2021/11/30 06:39:10;;;;;;;15.13;11.68;;;2.20;99.90;;;2.13;79.61;99410.38;5052608;28;20219;-75
2021/11/30 06:41:39;;;;;;;16.88;12.57;;;2.20;99.90;;;2.12;80.13;99401.56;5052856;28;20204;-75
2021/11/30 06:44:09;;;;;;;18.02;12.43;;;2.20;99.90;;;2.06;80.47;99391.59;5053507;28;20220;-74
2021/11/30 06:46:38;;;;;;;17.42;12.27;;;2.10;99.90;;;2.10;80.42;99392.91;5053677;28;20231;-75
2021/11/30 06:49:08;;;;;;;16.45;11.45;;;2.20;99.90;;;2.33;80.09;99381.28;5053078;28;20201;-75
2021/11/30 06:51:36;;;;;;;15.80;11.80;;;2.20;99.90;;;2.30;80.46;99370.97;5052277;28;20169;-76
2021/11/30 06:54:05;;;;;;;11.93;9.45;;;2.30;99.90;;;2.31;79.90;99356.63;5053759;28;20235;-76
2021/11/30 06:56:34;;;;;;;16.85;10.55;;;2.40;99.90;;;2.27;80.29;99350.84;5052837;28;20177;-75
2021/11/30 06:59:05;;;;;;;14.48;11.65;;;2.30;99.90;;;2.25;80.26;99341.34;5052329;28;20181;-75
2021/11/30 07:01:37;;;;;;;17.65;11.73;;;2.30;99.90;;;2.46;79.94;99330.72;5053987;28;20180;-74
2021/11/30 07:04:07;;;;;;;14.98;10.70;;;2.40;99.90;;;2.34;80.07;99326.88;5050881;28;20235;-74
2021/11/30 07:06:42;;;;;;;17.70;12.27;;;2.40;99.90;;;2.38;80.41;99320.16;5052658;28;20177;-74
2021/11/30 07:09:20;;;;;;;15.82;10.98;;;2.40;99.90;;;2.25;80.35;99309.31;5053055;28;20226;-74
2021/11/30 07:12:05;;;;;;;17.10;11.68;;;2.30;99.90;;;2.16;80.83;99304.09;5051731;28;20235;-74
2021/11/30 07:14:33;;;;;;;17.83;12.05;;;2.30;99.90;;;2.30;80.42;99297.06;5053009;28;20262;-74
2021/11/30 07:17:04;;;;;;;17.25;12.40;;;2.30;99.90;;;2.23;80.83;99301.50;5053470;28;20663;-74
2021/11/30 07:19:33;;;;;;;13.82;10.63;;;2.30;99.90;;;2.18;80.91;99294.06;5052981;28;20456;-74
2021/11/30 07:22:02;;;;;;;15.15;11.35;;;2.20;99.90;;;2.30;81.09;99283.72;5053315;28;20609;-75
2021/11/30 07:24:36;;;;;;;15.48;10.68;;;2.30;99.90;;;2.45;80.93;99270.34;5053144;28;20692;-74
2021/11/30 07:27:05;;;;;;;14.55;10.52;;;2.40;99.90;;;2.28;80.88;99260.91;5053370;28;20603;-74
2021/11/30 07:29:41;;;;;;;11.10;9.32;;;2.30;99.90;;;2.29;80.79;99263.38;5054153;28;20184;-74
2021/11/30 07:32:12;;;;;;;14.68;10.75;;;2.30;99.90;;;2.23;80.96;99260.66;5053238;28;20173;-74
2021/11/30 07:34:41;;;;;;;11.00;9.45;;;2.30;99.90;;;2.13;81.21;99251.09;5054481;28;20231;-74
2021/11/30 07:37:09;;;;;;;14.90;11.48;;;2.20;99.90;;;2.31;81.30;99248.03;5053544;28;20595;-74
2021/11/30 07:39:38;;;;;;;13.73;10.57;;;2.30;99.90;;;2.37;80.95;99233.91;5052942;28;20208;-74
2021/11/30 07:42:07;;;;;;;12.73;9.13;;;2.40;99.90;;;2.41;80.71;99250.38;5053178;28;20165;-74
2021/11/30 07:44:36;;;;;;;16.38;10.30;;;2.40;99.90;;;2.34;80.80;99242.28;5053039;28;20236;-75
2021/11/30 07:47:05;;;;;;;12.23;8.95;;;2.40;99.90;;;2.30;80.83;99221.50;5052996;28;20176;-74
2021/11/30 07:49:36;;;;;;;13.65;10.48;;;2.30;99.90;;;2.33;80.91;99226.47;5052888;28;20291;-74
2021/11/30 07:52:06;;;;;;;15.13;10.10;;;2.30;99.90;;;2.43;80.70;99225.13;5052860;28;20181;-76
2021/11/30 07:54:35;;;;;;;11.80;9.25;;;2.40;99.90;;;2.39;80.93;99215.84;5052974;28;20747;-75
2021/11/30 07:57:04;;;;;;;11.95;9.68;;;2.40;99.90;;;2.44;80.74;99210.78;5053238;28;20181;-74
2021/11/30 07:59:33;;;;;;;12.13;9.93;;;2.40;99.90;;;2.40;80.83;99200.66;5053039;28;20176;-75
2021/11/30 08:02:02;;;;;;;14.65;8.73;;;2.40;99.90;;;2.45;81.02;99198.25;5052686;28;20547;-74
2021/11/30 08:04:31;;;;;;;13.13;9.30;;;2.40;99.90;;;2.44;80.81;99196.59;5052782;28;20623;-75
2021/11/30 08:07:01;;;;;;;16.73;10.32;;;2.50;99.90;;;2.49;80.65;99188.84;5052752;28;20185;-75
2021/11/30 08:09:34;;;;;;;12.25;8.43;;;2.50;99.90;;;2.48;80.67;99160.47;5052661;28;20196;-75
2021/11/30 08:12:03;;;;;;;11.93;8.60;;;2.50;99.90;;;2.44;81.01;99175.25;5053924;28;20192;-75
2021/11/30 08:14:32;;;;;;;11.38;10.15;;;2.50;99.90;;;2.48;80.99;99160.47;5056523;28;20287;-74
2021/11/30 08:17:00;;;;;;;10.18;8.70;;;2.50;99.90;;;2.48;81.07;99155.16;5056608;28;20538;-75
2021/11/30 08:19:29;;;;;;;12.98;9.25;;;2.50;99.90;;;2.46;81.38;99154.53;5056834;28;20181;-75
2021/11/30 08:21:58;;;;;;;10.95;9.50;;;2.50;99.90;;;2.52;81.22;99130.53;5056681;28;20223;-75
2021/11/30 08:24:28;;;;;;;12.02;8.38;;;2.50;99.90;;;2.54;81.09;99133.03;5056280;28;20211;-75
2021/11/30 08:26:57;;;;;;;10.25;8.30;;;2.50;99.90;;;2.61;81.06;99125.91;5056536;28;20638;-74
2021/11/30 08:29:26;;;;;;;11.70;7.88;;;2.60;99.90;;;2.68;80.89;99117.91;5056191;28;20200;-74
2021/11/30 08:31:55;;;;;;;9.52;8.02;;;2.60;99.90;;;2.59;80.91;99115.41;5056583;28;20578;-74
2021/11/30 08:34:23;;;;;;;10.77;8.38;;;2.60;99.90;;;2.63;80.83;99113.16;5055989;28;20208;-73
2021/11/30 08:36:52;;;;;;;10.57;7.85;;;2.70;99.90;;;2.67;80.95;99103.75;5060881;28;20181;-74
2021/11/30 08:39:21;;;;;;;11.38;9.43;;;2.70;99.90;;;2.81;81.21;99086.78;5055768;28;20597;-74
2021/11/30 08:41:52;;;;;;;9.30;8.05;;;2.70;99.90;;;2.79;80.33;99091.50;5055842;28;20260;-73
2021/11/30 08:44:29;;;;;;;10.25;7.80;;;2.80;99.90;;;2.68;80.49;99073.34;5055709;28;20212;-74
2021/11/30 08:46:59;;;;;;;8.50;7.55;;;2.70;99.90;;;2.66;80.82;99075.41;5056088;28;20245;-74
2021/11/30 08:49:28;;;;;;;10.45;8.77;;;2.70;99.90;;;2.72;80.82;99076.44;5055604;28;20220;-75
2021/11/30 08:51:59;;;;;;;9.90;7.70;;;2.70;99.90;;;2.68;80.95;99054.66;5056383;28;20201;-74
2021/11/30 08:54:29;;;;;;;9.77;8.18;;;2.70;99.90;;;2.83;80.94;99071.41;5056065;28;20251;-74
2021/11/30 08:57:01;;;;;;;10.43;8.23;;;2.80;99.90;;;2.77;80.97;99064.16;5056393;28;20201;-74
2021/11/30 08:59:30;;;;;;;8.40;7.55;;;2.80;99.90;;;2.72;81.27;99058.59;5056374;28;20256;-74
2021/11/30 09:02:00;;;;;;;8.65;7.13;;;2.80;99.90;;;2.66;81.36;99067.41;5056182;28;20208;-74
2021/11/30 09:04:29;;;;;;;11.52;7.95;;;2.70;99.90;;;2.74;81.91;99064.56;5057552;28;20224;-74
2021/11/30 09:06:59;;;;;;;12.55;7.90;;;2.70;99.90;;;2.69;81.75;99061.66;5055671;28;20181;-73
2021/11/30 09:09:28;;;;;;;9.48;7.53;;;2.70;99.90;;;2.81;81.17;99052.06;5056184;28;20282;-72
2021/11/30 09:12:07;;;;;;;11.75;8.40;;;2.80;99.90;;;2.82;81.36;99055.56;5055794;28;20238;-74
2021/11/30 09:14:36;;;;;;;7.90;6.97;;;2.80;99.90;;;2.76;81.79;99045.69;5056810;28;20254;-74
2021/11/30 09:17:06;;;;;;;7.88;7.10;;;2.80;99.90;;;2.87;81.54;99045.94;5055552;28;20197;-74
2021/11/30 09:19:35;;;;;;;9.82;6.53;;;2.90;99.90;;;2.80;81.49;99047.75;5056107;28;20208;-75
2021/11/30 09:22:09;;;;;;;7.88;7.10;;;2.80;99.90;;;2.81;81.54;99044.03;5054548;28;20174;-74
2021/11/30 09:24:38;;;;;;;7.55;6.85;;;2.90;99.90;;;2.75;81.55;99025.31;5054733;28;20205;-74
2021/11/30 09:27:08;;;;;;;8.00;7.20;;;2.80;99.90;;;2.73;81.87;99024.69;5055973;28;20685;-76
2021/11/30 09:29:37;;;;;;;8.70;7.80;;;2.80;99.90;;;2.85;82.04;99023.13;5054977;28;20288;-75
2021/11/30 09:32:09;;;;;;;9.18;6.53;;;2.80;99.90;;;2.83;81.87;99017.97;5054919;28;20279;-74
2021/11/30 09:34:58;;;;;;;7.50;6.80;;;2.80;99.90;;;2.89;81.76;99019.84;5055825;28;20247;-74
2021/11/30 09:37:29;;;;;;;8.75;7.85;;;2.90;99.90;;;3.00;81.96;99005.91;5055326;28;20654;-73
2021/11/30 09:39:59;;;;;;;7.85;6.60;;;2.90;99.90;;;3.06;81.79;98998.94;5054971;28;20177;-73
2021/11/30 09:42:29;;;;;;;8.07;7.28;;;3.00;99.90;;;3.09;81.83;99003.91;5054871;28;20200;-76
2021/11/30 09:45:00;;;;;;;10.88;6.55;;;3.10;99.90;;;3.09;82.04;98992.41;5055658;28;20688;-73
2021/11/30 09:47:29;;;;;;;8.25;6.05;;;3.10;99.90;;;3.12;82.16;98991.97;5054931;28;20192;-74
2021/11/30 09:49:59;;;;;;;8.05;7.00;;;3.10;99.90;;;3.13;81.94;98988.28;5054693;28;20232;-74
2021/11/30 09:52:28;;;;;;;7.50;6.40;;;3.10;99.90;;;3.20;82.20;98986.44;5055064;28;20276;-74
2021/11/30 09:54:57;;;;;;;7.07;5.75;;;3.20;99.90;;;3.25;82.53;98978.66;5056243;28;20236;-75
2021/11/30 09:57:32;;;;;;;7.95;7.22;;;3.20;99.90;;;3.32;82.30;98968.81;5055402;28;20165;-73
2021/11/30 10:00:03;;;;;;;10.55;7.93;;;3.30;99.90;;;3.39;82.57;98967.78;5054686;28;20725;-73
2021/11/30 10:02:55;;;;;;;9.40;8.38;;;3.30;99.90;;;3.45;82.09;98971.50;5054755;28;20165;-74
2021/11/30 10:05:25;;;;;;;9.98;7.93;;;3.40;99.90;;;3.52;82.30;98961.66;5054218;28;20176;-74
2021/11/30 10:07:59;;;;;;;8.60;7.70;;;3.40;99.90;;;3.53;82.16;98952.63;5055451;28;20200;-74
2021/11/30 10:10:33;;;;;;;9.52;7.47;;;3.50;99.90;;;3.70;81.96;98958.38;5054696;28;20192;-73
2021/11/30 10:13:14;;;;;;;9.95;8.95;;;3.60;99.90;;;3.76;81.78;98960.25;5054363;28;20640;-74
2021/11/30 10:16:00;;;;;;;8.68;7.88;;;3.70;99.90;;;3.82;81.96;98952.22;5056727;28;20199;-73
2021/11/30 10:18:33;;;;;;;9.50;8.13;;;3.80;99.90;;;3.82;82.53;98957.56;5053387;28;20216;-74
2021/11/30 10:21:21;;;;;;;8.55;7.75;;;3.80;99.90;;;3.91;82.27;98945.63;5056132;28;20192;-74
2021/11/30 10:23:56;;;;;;;8.82;8.02;;;3.90;99.90;;;3.89;82.66;98950.34;5055281;28;20205;-73
2021/11/30 10:26:30;;;;;;;7.18;6.57;;;3.90;99.90;;;4.06;82.58;98939.25;5056536;28;20219;-74
2021/11/30 10:29:05;;;;;;;7.60;6.78;;;4.00;99.90;;;4.05;82.17;98934.91;5057977;28;20204;-73
2021/11/30 10:31:37;;;;;;;11.75;7.72;;;4.00;99.90;;;4.19;82.29;98939.22;5057239;28;20192;-75
2021/11/30 10:34:15;;;;;;;7.28;6.60;;;4.10;99.90;;;4.24;82.09;98923.34;5057470;28;20209;-73
2021/11/30 10:36:52;;;;;;;8.30;7.63;;;4.10;99.90;;;4.32;82.44;98921.25;5056530;28;20188;-74
2021/11/30 10:39:26;;;;;;;8.52;7.47;;;4.20;99.90;;;4.42;81.77;98909.28;5055796;28;20165;-74
2021/11/30 10:42:13;;;;;;;6.65;6.05;;;4.30;99.90;;;4.44;81.92;98916.09;5056633;28;20219;-74
2021/11/30 10:44:45;;;;;;;8.15;6.13;;;4.40;99.90;;;4.55;81.93;98902.03;5056083;28;20609;-74
2021/11/30 10:47:16;;;;;;;6.65;5.85;;;4.40;99.90;;;4.53;81.98;98901.44;5055524;28;20184;-74